sensor_id;sensor_type;location;lat;lon;timestamp;temperature;humidity
67870;DHT22;54673;52.262;6.830;2023-04-03T00:01:03;17.60;44.80
67870;DHT22;54673;52.262;6.830;2023-04-03T00:03:29;17.60;44.70
67870;DHT22;54673;52.262;6.830;2023-04-03T00:05:54;17.60;44.80
67870;DHT22;54673;52.262;6.830;2023-04-03T00:08:20;17.60;44.90
67870;DHT22;54673;52.262;6.830;2023-04-03T00:10:46;17.60;44.80
67870;DHT22;54673;52.262;6.830;2023-04-03T00:13:12;17.60;44.90
67870;DHT22;54673;52.262;6.830;2023-04-03T00:15:38;17.50;44.90
67870;DHT22;54673;52.262;6.830;2023-04-03T00:18:04;17.50;44.80
67870;DHT22;54673;52.262;6.830;2023-04-03T00:20:30;17.50;44.80
67870;DHT22;54673;52.262;6.830;2023-04-03T00:22:56;17.50;44.90
67870;DHT22;54673;52.262;6.830;2023-04-03T00:25:22;17.50;44.90
67870;DHT22;54673;52.262;6.830;2023-04-03T00:27:47;17.50;45.10
67870;DHT22;54673;52.262;6.830;2023-04-03T00:30:16;17.40;45.00
67870;DHT22;54673;52.262;6.830;2023-04-03T00:32:42;17.40;44.90
67870;DHT22;54673;52.262;6.830;2023-04-03T00:35:08;17.40;44.80
67870;DHT22;54673;52.262;6.830;2023-04-03T00:37:33;17.40;44.80
67870;DHT22;54673;52.262;6.830;2023-04-03T00:40:00;17.50;44.80
67870;DHT22;54673;52.262;6.830;2023-04-03T00:42:26;17.50;44.80
67870;DHT22;54673;52.262;6.830;2023-04-03T00:47:24;17.50;44.70
67870;DHT22;54673;52.262;6.830;2023-04-03T00:49:50;17.50;44.70
67870;DHT22;54673;52.262;6.830;2023-04-03T00:52:20;17.50;44.70
67870;DHT22;54673;52.262;6.830;2023-04-03T00:54:47;17.50;44.70
67870;DHT22;54673;52.262;6.830;2023-04-03T00:57:14;17.50;44.60
67870;DHT22;54673;52.262;6.830;2023-04-03T00:59:45;17.40;44.70
67870;DHT22;54673;52.262;6.830;2023-04-03T01:02:11;17.40;44.80
67870;DHT22;54673;52.262;6.830;2023-04-03T01:04:40;17.40;44.80
67870;DHT22;54673;52.262;6.830;2023-04-03T01:07:15;17.40;44.80
67870;DHT22;54673;52.262;6.830;2023-04-03T01:09:42;17.40;44.80
67870;DHT22;54673;52.262;6.830;2023-04-03T01:15:01;17.30;44.80
67870;DHT22;54673;52.262;6.830;2023-04-03T01:23:06;17.30;44.90
67870;DHT22;54673;52.262;6.830;2023-04-03T01:25:41;17.40;44.80
67870;DHT22;54673;52.262;6.830;2023-04-03T01:28:11;17.30;44.80
67870;DHT22;54673;52.262;6.830;2023-04-03T01:33:42;17.40;44.80
67870;DHT22;54673;52.262;6.830;2023-04-03T01:36:09;17.30;44.80
67870;DHT22;54673;52.262;6.830;2023-04-03T01:38:35;17.30;44.70
67870;DHT22;54673;52.262;6.830;2023-04-03T01:41:00;17.30;44.70
67870;DHT22;54673;52.262;6.830;2023-04-03T01:43:26;17.30;44.70
67870;DHT22;54673;52.262;6.830;2023-04-03T01:45:52;17.30;44.60
67870;DHT22;54673;52.262;6.830;2023-04-03T01:48:20;17.30;44.60
67870;DHT22;54673;52.262;6.830;2023-04-03T01:50:45;17.40;44.70
67870;DHT22;54673;52.262;6.830;2023-04-03T01:53:12;17.30;44.70
67870;DHT22;54673;52.262;6.830;2023-04-03T01:55:38;17.30;44.70
67870;DHT22;54673;52.262;6.830;2023-04-03T01:58:03;17.30;44.70
67870;DHT22;54673;52.262;6.830;2023-04-03T02:00:29;17.20;44.70
67870;DHT22;54673;52.262;6.830;2023-04-03T02:02:55;17.20;44.80
67870;DHT22;54673;52.262;6.830;2023-04-03T02:05:20;17.20;44.90
67870;DHT22;54673;52.262;6.830;2023-04-03T02:07:46;17.20;44.80
67870;DHT22;54673;52.262;6.830;2023-04-03T02:10:12;17.30;44.90
67870;DHT22;54673;52.262;6.830;2023-04-03T02:12:37;17.20;44.70
67870;DHT22;54673;52.262;6.830;2023-04-03T02:15:03;17.30;44.70
67870;DHT22;54673;52.262;6.830;2023-04-03T02:17:30;17.30;44.70
67870;DHT22;54673;52.262;6.830;2023-04-03T02:19:55;17.20;44.70
67870;DHT22;54673;52.262;6.830;2023-04-03T02:22:21;17.20;44.70
67870;DHT22;54673;52.262;6.830;2023-04-03T02:24:46;17.20;44.70
67870;DHT22;54673;52.262;6.830;2023-04-03T02:27:12;17.20;44.70
67870;DHT22;54673;52.262;6.830;2023-04-03T02:29:37;17.20;44.80
67870;DHT22;54673;52.262;6.830;2023-04-03T02:32:03;17.10;44.80
67870;DHT22;54673;52.262;6.830;2023-04-03T02:34:29;17.10;44.80
67870;DHT22;54673;52.262;6.830;2023-04-03T02:36:54;17.10;44.80
67870;DHT22;54673;52.262;6.830;2023-04-03T02:39:20;17.10;44.90
67870;DHT22;54673;52.262;6.830;2023-04-03T02:41:46;17.10;44.90
67870;DHT22;54673;52.262;6.830;2023-04-03T02:44:12;17.10;44.80
67870;DHT22;54673;52.262;6.830;2023-04-03T02:46:37;17.00;44.80
67870;DHT22;54673;52.262;6.830;2023-04-03T02:49:03;17.00;44.90
67870;DHT22;54673;52.262;6.830;2023-04-03T02:51:29;17.00;45.00
67870;DHT22;54673;52.262;6.830;2023-04-03T02:53:55;17.00;45.80
67870;DHT22;54673;52.262;6.830;2023-04-03T02:56:21;17.00;44.90
67870;DHT22;54673;52.262;6.830;2023-04-03T02:58:46;17.00;45.00
67870;DHT22;54673;52.262;6.830;2023-04-03T03:01:12;17.00;44.90
67870;DHT22;54673;52.262;6.830;2023-04-03T03:03:38;17.00;45.00
67870;DHT22;54673;52.262;6.830;2023-04-03T03:06:15;17.00;45.00
67870;DHT22;54673;52.262;6.830;2023-04-03T03:08:41;17.00;45.00
67870;DHT22;54673;52.262;6.830;2023-04-03T03:11:08;17.00;44.90
67870;DHT22;54673;52.262;6.830;2023-04-03T03:13:34;16.90;44.80
67870;DHT22;54673;52.262;6.830;2023-04-03T03:16:00;17.00;44.80
67870;DHT22;54673;52.262;6.830;2023-04-03T03:18:26;17.00;44.90
67870;DHT22;54673;52.262;6.830;2023-04-03T03:20:53;17.00;44.90
67870;DHT22;54673;52.262;6.830;2023-04-03T03:23:20;16.90;44.80
67870;DHT22;54673;52.262;6.830;2023-04-03T03:25:46;17.00;44.80
67870;DHT22;54673;52.262;6.830;2023-04-03T03:28:12;16.90;44.80
67870;DHT22;54673;52.262;6.830;2023-04-03T03:30:37;16.90;44.80
67870;DHT22;54673;52.262;6.830;2023-04-03T03:33:03;16.90;44.90
67870;DHT22;54673;52.262;6.830;2023-04-03T03:35:29;16.90;44.80
67870;DHT22;54673;52.262;6.830;2023-04-03T03:37:54;16.90;44.80
67870;DHT22;54673;52.262;6.830;2023-04-03T03:40:20;16.90;44.80
67870;DHT22;54673;52.262;6.830;2023-04-03T03:42:45;16.90;44.80
67870;DHT22;54673;52.262;6.830;2023-04-03T03:45:11;16.90;44.80
67870;DHT22;54673;52.262;6.830;2023-04-03T03:47:36;16.90;45.00
67870;DHT22;54673;52.262;6.830;2023-04-03T03:50:02;16.90;45.00
67870;DHT22;54673;52.262;6.830;2023-04-03T03:52:28;16.90;45.00
67870;DHT22;54673;52.262;6.830;2023-04-03T03:54:55;16.90;45.00
67870;DHT22;54673;52.262;6.830;2023-04-03T03:57:21;16.80;44.90
67870;DHT22;54673;52.262;6.830;2023-04-03T03:59:46;16.90;44.80
67870;DHT22;54673;52.262;6.830;2023-04-03T04:02:14;16.90;44.90
67870;DHT22;54673;52.262;6.830;2023-04-03T04:04:40;16.80;44.80
67870;DHT22;54673;52.262;6.830;2023-04-03T04:07:06;16.90;44.70
67870;DHT22;54673;52.262;6.830;2023-04-03T04:09:31;16.90;44.70
67870;DHT22;54673;52.262;6.830;2023-04-03T04:11:57;17.00;44.70
67870;DHT22;54673;52.262;6.830;2023-04-03T04:14:23;16.90;44.70
67870;DHT22;54673;52.262;6.830;2023-04-03T04:16:48;16.90;44.60
67870;DHT22;54673;52.262;6.830;2023-04-03T04:19:14;16.90;44.60
67870;DHT22;54673;52.262;6.830;2023-04-03T04:21:40;16.90;44.70
67870;DHT22;54673;52.262;6.830;2023-04-03T04:24:07;16.80;44.60
67870;DHT22;54673;52.262;6.830;2023-04-03T04:26:33;16.40;44.50
67870;DHT22;54673;52.262;6.830;2023-04-03T04:28:58;16.80;44.70
67870;DHT22;54673;52.262;6.830;2023-04-03T04:31:24;16.80;44.80
67870;DHT22;54673;52.262;6.830;2023-04-03T04:33:49;16.80;44.70
67870;DHT22;54673;52.262;6.830;2023-04-03T04:36:15;16.80;44.80
67870;DHT22;54673;52.262;6.830;2023-04-03T04:38:41;16.80;44.70
67870;DHT22;54673;52.262;6.830;2023-04-03T04:41:07;16.70;44.60
67870;DHT22;54673;52.262;6.830;2023-04-03T04:43:33;16.70;44.80
67870;DHT22;54673;52.262;6.830;2023-04-03T04:46:06;16.70;44.60
67870;DHT22;54673;52.262;6.830;2023-04-03T04:48:32;16.70;44.60
67870;DHT22;54673;52.262;6.830;2023-04-03T04:50:57;16.70;44.60
67870;DHT22;54673;52.262;6.830;2023-04-03T04:53:23;16.80;44.70
67870;DHT22;54673;52.262;6.830;2023-04-03T04:55:49;16.80;44.70
67870;DHT22;54673;52.262;6.830;2023-04-03T04:58:14;16.80;44.60
67870;DHT22;54673;52.262;6.830;2023-04-03T05:00:40;16.80;44.80
67870;DHT22;54673;52.262;6.830;2023-04-03T05:03:06;16.80;44.90
67870;DHT22;54673;52.262;6.830;2023-04-03T05:05:31;16.80;45.00
67870;DHT22;54673;52.262;6.830;2023-04-03T05:07:57;16.80;45.00
67870;DHT22;54673;52.262;6.830;2023-04-03T05:10:22;16.80;45.00
67870;DHT22;54673;52.262;6.830;2023-04-03T05:12:48;16.80;45.10
67870;DHT22;54673;52.262;6.830;2023-04-03T05:15:14;16.80;45.00
67870;DHT22;54673;52.262;6.830;2023-04-03T05:17:39;16.70;44.90
67870;DHT22;54673;52.262;6.830;2023-04-03T05:20:05;16.80;45.00
67870;DHT22;54673;52.262;6.830;2023-04-03T05:22:31;16.80;44.90
67870;DHT22;54673;52.262;6.830;2023-04-03T05:24:57;16.80;44.80
67870;DHT22;54673;52.262;6.830;2023-04-03T05:27:22;16.80;44.80
67870;DHT22;54673;52.262;6.830;2023-04-03T05:29:53;16.80;44.80
67870;DHT22;54673;52.262;6.830;2023-04-03T05:32:19;16.80;44.70
67870;DHT22;54673;52.262;6.830;2023-04-03T05:34:45;16.80;44.70
67870;DHT22;54673;52.262;6.830;2023-04-03T05:37:11;16.80;44.80
67870;DHT22;54673;52.262;6.830;2023-04-03T05:39:36;16.80;44.80
67870;DHT22;54673;52.262;6.830;2023-04-03T05:42:03;16.80;44.80
67870;DHT22;54673;52.262;6.830;2023-04-03T05:44:29;16.80;44.90
67870;DHT22;54673;52.262;6.830;2023-04-03T05:46:54;16.80;44.90
67870;DHT22;54673;52.262;6.830;2023-04-03T05:49:20;16.80;44.90
67870;DHT22;54673;52.262;6.830;2023-04-03T05:51:46;16.80;45.30
67870;DHT22;54673;52.262;6.830;2023-04-03T05:54:21;16.80;44.80
67870;DHT22;54673;52.262;6.830;2023-04-03T05:56:49;16.80;44.80
67870;DHT22;54673;52.262;6.830;2023-04-03T05:59:16;16.80;44.90
67870;DHT22;54673;52.262;6.830;2023-04-03T06:01:41;16.80;44.90
67870;DHT22;54673;52.262;6.830;2023-04-03T06:04:07;16.80;45.00
67870;DHT22;54673;52.262;6.830;2023-04-03T06:06:52;16.80;45.00
67870;DHT22;54673;52.262;6.830;2023-04-03T06:09:20;16.80;45.00
67870;DHT22;54673;52.262;6.830;2023-04-03T06:11:46;16.80;45.20
67870;DHT22;54673;52.262;6.830;2023-04-03T06:14:12;16.80;45.00
67870;DHT22;54673;52.262;6.830;2023-04-03T06:16:39;16.80;45.00
67870;DHT22;54673;52.262;6.830;2023-04-03T06:19:06;16.80;45.10
67870;DHT22;54673;52.262;6.830;2023-04-03T06:21:32;16.80;45.00
67870;DHT22;54673;52.262;6.830;2023-04-03T06:23:58;16.80;45.00
67870;DHT22;54673;52.262;6.830;2023-04-03T06:26:23;16.80;45.00
67870;DHT22;54673;52.262;6.830;2023-04-03T06:28:49;16.80;45.00
67870;DHT22;54673;52.262;6.830;2023-04-03T06:31:14;16.80;45.10
67870;DHT22;54673;52.262;6.830;2023-04-03T06:33:40;16.80;45.00
67870;DHT22;54673;52.262;6.830;2023-04-03T06:36:06;16.80;45.00
67870;DHT22;54673;52.262;6.830;2023-04-03T06:38:35;16.80;45.00
67870;DHT22;54673;52.262;6.830;2023-04-03T06:41:00;16.90;45.00
67870;DHT22;54673;52.262;6.830;2023-04-03T06:43:26;16.90;45.10
67870;DHT22;54673;52.262;6.830;2023-04-03T06:45:52;16.80;45.10
67870;DHT22;54673;52.262;6.830;2023-04-03T06:48:17;16.90;45.30
67870;DHT22;54673;52.262;6.830;2023-04-03T06:50:43;16.90;45.20
67870;DHT22;54673;52.262;6.830;2023-04-03T06:53:11;16.90;45.20
67870;DHT22;54673;52.262;6.830;2023-04-03T06:55:37;16.90;45.20
67870;DHT22;54673;52.262;6.830;2023-04-03T06:58:03;16.90;45.10
67870;DHT22;54673;52.262;6.830;2023-04-03T07:00:29;16.90;45.20
67870;DHT22;54673;52.262;6.830;2023-04-03T07:02:55;16.90;45.30
67870;DHT22;54673;52.262;6.830;2023-04-03T07:05:23;16.90;45.40
67870;DHT22;54673;52.262;6.830;2023-04-03T07:07:48;16.90;45.30
67870;DHT22;54673;52.262;6.830;2023-04-03T07:10:15;16.80;45.30
67870;DHT22;54673;52.262;6.830;2023-04-03T07:12:41;16.90;45.40
67870;DHT22;54673;52.262;6.830;2023-04-03T07:15:07;16.90;45.50
67870;DHT22;54673;52.262;6.830;2023-04-03T07:17:33;16.90;45.60
67870;DHT22;54673;52.262;6.830;2023-04-03T07:19:59;16.90;45.50
67870;DHT22;54673;52.262;6.830;2023-04-03T07:22:25;16.90;45.50
67870;DHT22;54673;52.262;6.830;2023-04-03T07:24:50;16.90;45.50
67870;DHT22;54673;52.262;6.830;2023-04-03T07:27:16;16.90;45.40
67870;DHT22;54673;52.262;6.830;2023-04-03T07:29:43;17.00;45.50
67870;DHT22;54673;52.262;6.830;2023-04-03T07:32:09;17.00;45.40
67870;DHT22;54673;52.262;6.830;2023-04-03T07:34:35;17.00;45.40
67870;DHT22;54673;52.262;6.830;2023-04-03T07:37:01;17.00;45.30
67870;DHT22;54673;52.262;6.830;2023-04-03T07:39:28;17.00;45.40
67870;DHT22;54673;52.262;6.830;2023-04-03T07:41:53;17.00;45.50
67870;DHT22;54673;52.262;6.830;2023-04-03T07:44:20;17.00;45.50
67870;DHT22;54673;52.262;6.830;2023-04-03T07:46:46;17.00;45.50
67870;DHT22;54673;52.262;6.830;2023-04-03T07:49:12;17.00;45.40
67870;DHT22;54673;52.262;6.830;2023-04-03T07:51:37;17.10;45.60
67870;DHT22;54673;52.262;6.830;2023-04-03T07:54:03;17.00;45.40
67870;DHT22;54673;52.262;6.830;2023-04-03T07:56:29;17.00;45.40
67870;DHT22;54673;52.262;6.830;2023-04-03T07:58:55;17.10;45.50
67870;DHT22;54673;52.262;6.830;2023-04-03T08:01:21;17.10;45.40
67870;DHT22;54673;52.262;6.830;2023-04-03T08:03:47;17.10;45.20
67870;DHT22;54673;52.262;6.830;2023-04-03T08:06:12;17.10;45.30
67870;DHT22;54673;52.262;6.830;2023-04-03T08:08:40;17.10;45.20
67870;DHT22;54673;52.262;6.830;2023-04-03T08:11:06;17.10;45.40
67870;DHT22;54673;52.262;6.830;2023-04-03T08:13:34;17.00;45.10
67870;DHT22;54673;52.262;6.830;2023-04-03T08:16:12;17.00;45.40
67870;DHT22;54673;52.262;6.830;2023-04-03T08:18:38;17.00;45.50
67870;DHT22;54673;52.262;6.830;2023-04-03T08:21:11;17.00;45.50
67870;DHT22;54673;52.262;6.830;2023-04-03T08:23:38;17.00;45.40
67870;DHT22;54673;52.262;6.830;2023-04-03T08:26:14;17.00;45.70
67870;DHT22;54673;52.262;6.830;2023-04-03T08:28:40;17.00;45.40
67870;DHT22;54673;52.262;6.830;2023-04-03T08:31:09;17.00;45.40
67870;DHT22;54673;52.262;6.830;2023-04-03T08:33:37;17.00;45.10
67870;DHT22;54673;52.262;6.830;2023-04-03T08:36:07;17.10;45.30
67870;DHT22;54673;52.262;6.830;2023-04-03T08:38:34;17.10;45.30
67870;DHT22;54673;52.262;6.830;2023-04-03T08:41:15;17.10;45.10
67870;DHT22;54673;52.262;6.830;2023-04-03T08:49:39;17.10;45.30
67870;DHT22;54673;52.262;6.830;2023-04-03T08:52:11;17.20;45.40
67870;DHT22;54673;52.262;6.830;2023-04-03T08:57:14;17.20;45.40
67870;DHT22;54673;52.262;6.830;2023-04-03T08:59:40;17.20;45.50
67870;DHT22;54673;52.262;6.830;2023-04-03T09:02:33;17.40;45.20
67870;DHT22;54673;52.262;6.830;2023-04-03T09:05:01;17.30;45.70
67870;DHT22;54673;52.262;6.830;2023-04-03T09:07:43;17.30;46.00
67870;DHT22;54673;52.262;6.830;2023-04-03T09:10:12;17.30;46.10
67870;DHT22;54673;52.262;6.830;2023-04-03T09:12:42;17.30;46.20
67870;DHT22;54673;52.262;6.830;2023-04-03T09:15:17;17.30;46.20
67870;DHT22;54673;52.262;6.830;2023-04-03T09:22:53;17.30;46.90
67870;DHT22;54673;52.262;6.830;2023-04-03T09:25:33;17.30;46.80
67870;DHT22;54673;52.262;6.830;2023-04-03T09:28:00;17.30;47.00
67870;DHT22;54673;52.262;6.830;2023-04-03T09:30:27;17.30;47.00
67870;DHT22;54673;52.262;6.830;2023-04-03T09:32:55;17.40;47.10
67870;DHT22;54673;52.262;6.830;2023-04-03T09:35:36;17.60;46.60
67870;DHT22;54673;52.262;6.830;2023-04-03T09:40:39;17.60;46.80
67870;DHT22;54673;52.262;6.830;2023-04-03T09:43:25;17.60;47.00
67870;DHT22;54673;52.262;6.830;2023-04-03T09:45:52;17.60;46.80
67870;DHT22;54673;52.262;6.830;2023-04-03T09:48:20;17.70;46.30
67870;DHT22;54673;52.262;6.830;2023-04-03T09:50:57;17.80;46.30
67870;DHT22;54673;52.262;6.830;2023-04-03T09:53:39;17.70;46.70
67870;DHT22;54673;52.262;6.830;2023-04-03T09:58:49;18.00;47.50
67870;DHT22;54673;52.262;6.830;2023-04-03T10:04:22;17.40;47.30
67870;DHT22;54673;52.262;6.830;2023-04-03T10:06:53;17.70;46.30
67870;DHT22;54673;52.262;6.830;2023-04-03T10:09:27;17.70;46.50
67870;DHT22;54673;52.262;6.830;2023-04-03T10:12:07;17.70;46.60
67870;DHT22;54673;52.262;6.830;2023-04-03T10:14:37;17.60;46.80
67870;DHT22;54673;52.262;6.830;2023-04-03T10:30:34;18.20;45.40
67870;DHT22;54673;52.262;6.830;2023-04-03T10:46:36;18.30;44.20
67870;DHT22;54673;52.262;6.830;2023-04-03T10:51:59;18.20;44.10
67870;DHT22;54673;52.262;6.830;2023-04-03T10:54:38;18.20;44.30
67870;DHT22;54673;52.262;6.830;2023-04-03T10:57:08;18.20;44.10
67870;DHT22;54673;52.262;6.830;2023-04-03T11:00:14;18.20;44.00
67870;DHT22;54673;52.262;6.830;2023-04-03T11:07:56;18.10;44.30
67870;DHT22;54673;52.262;6.830;2023-04-03T11:10:42;18.10;44.00
67870;DHT22;54673;52.262;6.830;2023-04-03T11:13:26;18.10;43.80
67870;DHT22;54673;52.262;6.830;2023-04-03T11:15:54;18.10;43.70
67870;DHT22;54673;52.262;6.830;2023-04-03T11:23:57;18.00;43.80
67870;DHT22;54673;52.262;6.830;2023-04-03T11:26:29;18.00;44.10
67870;DHT22;54673;52.262;6.830;2023-04-03T11:29:03;18.00;44.10
67870;DHT22;54673;52.262;6.830;2023-04-03T11:34:12;18.10;44.00
67870;DHT22;54673;52.262;6.830;2023-04-03T11:36:47;18.10;44.00
67870;DHT22;54673;52.262;6.830;2023-04-03T11:39:24;18.00;43.90
67870;DHT22;54673;52.262;6.830;2023-04-03T11:41:51;18.00;44.10
67870;DHT22;54673;52.262;6.830;2023-04-03T11:44:34;18.00;44.20
67870;DHT22;54673;52.262;6.830;2023-04-03T11:47:02;17.90;44.10
67870;DHT22;54673;52.262;6.830;2023-04-03T12:08:46;18.00;44.00
67870;DHT22;54673;52.262;6.830;2023-04-03T12:32:23;17.90;44.10
67870;DHT22;54673;52.262;6.830;2023-04-03T12:45:47;18.00;45.10
67870;DHT22;54673;52.262;6.830;2023-04-03T12:48:22;18.00;45.40
67870;DHT22;54673;52.262;6.830;2023-04-03T12:50:50;17.10;45.00
67870;DHT22;54673;52.262;6.830;2023-04-03T12:53:22;18.00;45.70
67870;DHT22;54673;52.262;6.830;2023-04-03T12:55:57;18.00;45.60
67870;DHT22;54673;52.262;6.830;2023-04-03T12:58:27;18.10;45.90
67870;DHT22;54673;52.262;6.830;2023-04-03T13:01:11;18.10;45.90
67870;DHT22;54673;52.262;6.830;2023-04-03T13:03:39;18.10;46.40
67870;DHT22;54673;52.262;6.830;2023-04-03T13:06:06;18.10;46.20
67870;DHT22;54673;52.262;6.830;2023-04-03T13:08:32;18.10;46.20
67870;DHT22;54673;52.262;6.830;2023-04-03T13:11:11;18.10;46.20
67870;DHT22;54673;52.262;6.830;2023-04-03T13:13:37;18.10;46.20
67870;DHT22;54673;52.262;6.830;2023-04-03T13:16:10;18.00;46.40
67870;DHT22;54673;52.262;6.830;2023-04-03T13:18:37;18.00;46.60
67870;DHT22;54673;52.262;6.830;2023-04-03T13:21:13;18.10;46.80
67870;DHT22;54673;52.262;6.830;2023-04-03T13:23:43;18.20;46.90
67870;DHT22;54673;52.262;6.830;2023-04-03T13:26:10;18.20;45.90
67870;DHT22;54673;52.262;6.830;2023-04-03T13:28:36;18.30;45.70
67870;DHT22;54673;52.262;6.830;2023-04-03T13:33:43;18.30;45.70
67870;DHT22;54673;52.262;6.830;2023-04-03T13:36:31;18.30;45.50
67870;DHT22;54673;52.262;6.830;2023-04-03T13:39:30;18.40;45.60
67870;DHT22;54673;52.262;6.830;2023-04-03T13:42:02;18.40;45.50
67870;DHT22;54673;52.262;6.830;2023-04-03T13:44:40;18.20;45.20
67870;DHT22;54673;52.262;6.830;2023-04-03T13:47:16;18.30;45.10
67870;DHT22;54673;52.262;6.830;2023-04-03T13:52:46;18.40;45.20
67870;DHT22;54673;52.262;6.830;2023-04-03T13:55:28;18.30;44.90
67870;DHT22;54673;52.262;6.830;2023-04-03T13:58:20;18.30;44.90
67870;DHT22;54673;52.262;6.830;2023-04-03T14:05:59;18.20;45.40
67870;DHT22;54673;52.262;6.830;2023-04-03T14:08:26;18.20;45.50
67870;DHT22;54673;52.262;6.830;2023-04-03T14:10:53;18.20;45.40
67870;DHT22;54673;52.262;6.830;2023-04-03T14:13:19;18.30;45.30
67870;DHT22;54673;52.262;6.830;2023-04-03T14:15:46;18.30;45.10
67870;DHT22;54673;52.262;6.830;2023-04-03T14:18:16;18.40;45.10
67870;DHT22;54673;52.262;6.830;2023-04-03T14:20:43;18.30;45.10
67870;DHT22;54673;52.262;6.830;2023-04-03T14:23:08;18.20;45.50
67870;DHT22;54673;52.262;6.830;2023-04-03T14:25:34;18.30;45.50
67870;DHT22;54673;52.262;6.830;2023-04-03T14:28:00;18.20;45.50
67870;DHT22;54673;52.262;6.830;2023-04-03T14:30:30;18.00;45.90
67870;DHT22;54673;52.262;6.830;2023-04-03T14:32:56;17.90;46.40
67870;DHT22;54673;52.262;6.830;2023-04-03T14:35:23;17.80;46.70
67870;DHT22;54673;52.262;6.830;2023-04-03T14:37:51;17.70;46.80
67870;DHT22;54673;52.262;6.830;2023-04-03T14:40:23;17.70;46.90
67870;DHT22;54673;52.262;6.830;2023-04-03T14:42:49;17.70;46.90
67870;DHT22;54673;52.262;6.830;2023-04-03T14:45:15;17.70;46.80
67870;DHT22;54673;52.262;6.830;2023-04-03T14:47:52;17.70;46.90
67870;DHT22;54673;52.262;6.830;2023-04-03T14:50:21;17.80;46.90
67870;DHT22;54673;52.262;6.830;2023-04-03T14:52:48;17.90;46.50
67870;DHT22;54673;52.262;6.830;2023-04-03T14:55:15;17.90;47.10
67870;DHT22;54673;52.262;6.830;2023-04-03T14:57:42;17.90;47.40
67870;DHT22;54673;52.262;6.830;2023-04-03T15:00:13;17.90;47.70
67870;DHT22;54673;52.262;6.830;2023-04-03T15:02:39;17.90;48.10
67870;DHT22;54673;52.262;6.830;2023-04-03T15:05:08;17.90;48.30
67870;DHT22;54673;52.262;6.830;2023-04-03T15:07:40;17.90;48.40
67870;DHT22;54673;52.262;6.830;2023-04-03T15:10:18;17.90;48.60
67870;DHT22;54673;52.262;6.830;2023-04-03T15:12:44;18.00;49.30
67870;DHT22;54673;52.262;6.830;2023-04-03T15:15:10;18.00;49.10
67870;DHT22;54673;52.262;6.830;2023-04-03T15:17:36;18.00;49.10
67870;DHT22;54673;52.262;6.830;2023-04-03T15:20:03;18.10;49.20
67870;DHT22;54673;52.262;6.830;2023-04-03T15:22:31;18.10;49.30
67870;DHT22;54673;52.262;6.830;2023-04-03T15:24:57;19.00;49.80
67870;DHT22;54673;52.262;6.830;2023-04-03T15:27:22;18.20;49.40
67870;DHT22;54673;52.262;6.830;2023-04-03T15:29:48;18.20;49.40
67870;DHT22;54673;52.262;6.830;2023-04-03T15:32:14;18.20;49.60
67870;DHT22;54673;52.262;6.830;2023-04-03T15:34:40;18.20;49.60
67870;DHT22;54673;52.262;6.830;2023-04-03T15:37:05;18.20;49.50
67870;DHT22;54673;52.262;6.830;2023-04-03T15:39:31;18.30;49.60
67870;DHT22;54673;52.262;6.830;2023-04-03T15:41:58;18.30;49.50
67870;DHT22;54673;52.262;6.830;2023-04-03T15:44:32;18.30;49.50
67870;DHT22;54673;52.262;6.830;2023-04-03T15:46:58;18.40;49.60
67870;DHT22;54673;52.262;6.830;2023-04-03T15:49:25;18.40;49.50
67870;DHT22;54673;52.262;6.830;2023-04-03T15:51:51;18.40;49.60
67870;DHT22;54673;52.262;6.830;2023-04-03T15:54:17;18.50;49.50
67870;DHT22;54673;52.262;6.830;2023-04-03T15:56:42;18.50;49.50
67870;DHT22;54673;52.262;6.830;2023-04-03T15:59:08;18.50;49.50
67870;DHT22;54673;52.262;6.830;2023-04-03T16:01:34;18.60;49.50
67870;DHT22;54673;52.262;6.830;2023-04-03T16:04:01;18.60;49.40
67870;DHT22;54673;52.262;6.830;2023-04-03T16:06:27;18.60;49.40
67870;DHT22;54673;52.262;6.830;2023-04-03T16:08:54;18.70;49.50
67870;DHT22;54673;52.262;6.830;2023-04-03T16:11:26;18.70;49.50
67870;DHT22;54673;52.262;6.830;2023-04-03T16:13:52;18.70;49.40
67870;DHT22;54673;52.262;6.830;2023-04-03T16:16:18;18.80;49.50
67870;DHT22;54673;52.262;6.830;2023-04-03T16:18:43;18.80;49.40
67870;DHT22;54673;52.262;6.830;2023-04-03T16:21:09;18.80;50.20
67870;DHT22;54673;52.262;6.830;2023-04-03T16:23:35;18.80;49.20
67870;DHT22;54673;52.262;6.830;2023-04-03T16:26:01;18.90;49.20
67870;DHT22;54673;52.262;6.830;2023-04-03T16:28:26;18.90;49.10
67870;DHT22;54673;52.262;6.830;2023-04-03T16:30:52;18.80;49.00
67870;DHT22;54673;52.262;6.830;2023-04-03T16:33:17;18.70;49.10
67870;DHT22;54673;52.262;6.830;2023-04-03T16:35:47;18.70;49.00
67870;DHT22;54673;52.262;6.830;2023-04-03T16:38:13;18.60;48.90
67870;DHT22;54673;52.262;6.830;2023-04-03T16:40:40;18.60;48.90
67870;DHT22;54673;52.262;6.830;2023-04-03T16:43:05;18.60;48.70
67870;DHT22;54673;52.262;6.830;2023-04-03T16:45:31;19.10;48.90
67870;DHT22;54673;52.262;6.830;2023-04-03T16:47:57;18.60;48.60
67870;DHT22;54673;52.262;6.830;2023-04-03T16:50:22;18.60;48.40
67870;DHT22;54673;52.262;6.830;2023-04-03T16:52:48;18.60;48.40
67870;DHT22;54673;52.262;6.830;2023-04-03T16:55:13;18.60;48.30
67870;DHT22;54673;52.262;6.830;2023-04-03T16:57:39;18.60;48.20
67870;DHT22;54673;52.262;6.830;2023-04-03T17:00:07;18.60;48.10
67870;DHT22;54673;52.262;6.830;2023-04-03T17:02:33;18.40;47.90
67870;DHT22;54673;52.262;6.830;2023-04-03T17:04:59;18.60;48.00
67870;DHT22;54673;52.262;6.830;2023-04-03T17:07:25;18.60;48.00
67870;DHT22;54673;52.262;6.830;2023-04-03T17:09:52;18.60;47.90
67870;DHT22;54673;52.262;6.830;2023-04-03T17:12:19;18.50;48.80
67870;DHT22;54673;52.262;6.830;2023-04-03T17:14:45;18.50;47.90
67870;DHT22;54673;52.262;6.830;2023-04-03T17:17:13;18.50;48.00
67870;DHT22;54673;52.262;6.830;2023-04-03T17:19:39;18.20;47.90
67870;DHT22;54673;52.262;6.830;2023-04-03T17:22:07;18.50;48.30
67870;DHT22;54673;52.262;6.830;2023-04-03T17:24:34;18.40;48.30
67870;DHT22;54673;52.262;6.830;2023-04-03T17:27:00;18.50;48.40
67870;DHT22;54673;52.262;6.830;2023-04-03T17:29:25;18.50;48.50
67870;DHT22;54673;52.262;6.830;2023-04-03T17:31:51;18.50;48.50
67870;DHT22;54673;52.262;6.830;2023-04-03T17:34:16;18.60;48.60
67870;DHT22;54673;52.262;6.830;2023-04-03T17:36:42;18.60;48.50
67870;DHT22;54673;52.262;6.830;2023-04-03T17:39:08;18.60;48.70
67870;DHT22;54673;52.262;6.830;2023-04-03T17:41:34;18.60;48.50
67870;DHT22;54673;52.262;6.830;2023-04-03T17:43:59;18.70;48.60
67870;DHT22;54673;52.262;6.830;2023-04-03T17:46:25;18.60;48.60
67870;DHT22;54673;52.262;6.830;2023-04-03T17:48:51;18.60;48.60
67870;DHT22;54673;52.262;6.830;2023-04-03T17:51:20;18.70;48.50
67870;DHT22;54673;52.262;6.830;2023-04-03T17:53:47;18.70;48.40
67870;DHT22;54673;52.262;6.830;2023-04-03T17:56:24;18.80;48.20